createdAt,value
2018-01-26T00:02:33.421Z,26.75
2018-01-26T00:05:08.678Z,27.92
2018-01-26T00:07:43.208Z,24.77
2018-01-26T00:10:17.942Z,27.17
2018-01-26T00:12:54.313Z,29.33
2018-01-26T00:15:28.879Z,28.70
2018-01-26T00:18:03.340Z,25.85
2018-01-26T00:20:37.926Z,28.48
2018-01-26T00:23:12.306Z,26.05
2018-01-26T00:25:46.773Z,25.80
2018-01-26T00:28:21.876Z,27.50
2018-01-26T00:30:57.075Z,28.05
2018-01-26T00:33:31.447Z,26.30
2018-01-26T00:36:06.699Z,27.95
2018-01-26T00:38:41.977Z,25.35
2018-01-26T00:41:16.453Z,28.87
2018-01-26T00:43:51.621Z,27.80
2018-01-26T00:46:25.986Z,25.23
2018-01-26T00:49:00.509Z,24.40
2018-01-26T00:51:34.857Z,28.42
2018-01-26T00:54:10.084Z,27.08
2018-01-26T00:56:44.445Z,27.92
2018-01-26T00:59:18.908Z,25.90
2018-01-26T01:01:53.447Z,26.77
2018-01-26T01:04:28.024Z,27.58
2018-01-26T01:07:02.389Z,28.00
2018-01-26T01:09:36.915Z,30.20
2018-01-26T01:12:11.363Z,28.45
2018-01-26T01:14:45.838Z,29.05
2018-01-26T01:17:20.392Z,29.30
2018-01-26T01:19:54.820Z,29.15
2018-01-26T01:22:29.287Z,27.42
2018-01-26T01:25:03.761Z,27.85
2018-01-26T01:27:38.255Z,29.15
2018-01-26T01:30:12.697Z,28.17
2018-01-26T01:32:47.080Z,28.87
2018-01-26T01:35:21.590Z,27.27
2018-01-26T01:37:56.039Z,29.55
2018-01-26T01:40:30.606Z,30.73
2018-01-26T01:43:05.003Z,26.27
2018-01-26T01:45:39.521Z,29.25
2018-01-26T01:48:14.772Z,29.08
2018-01-26T01:50:49.167Z,27.77
2018-01-26T01:53:24.420Z,29.08
2018-01-26T01:55:58.800Z,29.30
2018-01-26T01:58:33.301Z,28.10
2018-01-26T02:01:08.638Z,28.87
2018-01-26T02:03:43.147Z,29.45
2018-01-26T02:06:17.895Z,29.73
2018-01-26T02:08:52.280Z,27.87
2018-01-26T02:11:26.836Z,28.25
2018-01-26T02:14:01.387Z,29.23
2018-01-26T02:16:35.925Z,30.17
2018-01-26T02:19:10.517Z,28.75
2018-01-26T02:21:45.044Z,26.33
2018-01-26T02:24:19.505Z,31.35
2018-01-26T02:26:54.721Z,29.98
2018-01-26T02:29:29.143Z,29.30
2018-01-26T02:32:03.606Z,32.55
2018-01-26T02:34:38.158Z,31.50
2018-01-26T02:37:13.424Z,28.38
2018-01-26T02:39:47.948Z,25.80
2018-01-26T02:42:22.516Z,26.20
2018-01-26T02:44:57.256Z,27.17
2018-01-26T02:47:31.642Z,29.55
2018-01-26T02:50:06.157Z,27.70
2018-01-26T02:52:40.673Z,30.05
2018-01-26T02:55:15.074Z,30.65
2018-01-26T02:57:49.559Z,28.38
2018-01-26T03:00:24.049Z,30.12
2018-01-26T03:02:58.597Z,30.98
2018-01-26T03:05:33.152Z,29.87
2018-01-26T03:08:07.736Z,29.95
2018-01-26T03:10:42.926Z,29.20
2018-01-26T03:13:17.425Z,27.10
2018-01-26T03:15:51.992Z,30.37
2018-01-26T03:18:26.503Z,29.17
2018-01-26T03:21:00.913Z,29.70
2018-01-26T03:23:36.281Z,28.40
2018-01-26T03:26:11.471Z,30.42
2018-01-26T03:28:45.888Z,30.15
2018-01-26T03:31:20.212Z,29.73
2018-01-26T03:33:54.780Z,30.45
2018-01-26T03:36:29.365Z,32.47
2018-01-26T03:39:03.926Z,30.85
2018-01-26T03:41:38.428Z,32.38
2018-01-26T03:44:12.850Z,31.00
2018-01-26T03:46:47.354Z,33.80
2018-01-26T03:49:21.918Z,29.70
2018-01-26T03:51:56.281Z,31.92
2018-01-26T03:54:30.802Z,33.08
2018-01-26T03:57:05.255Z,30.70
2018-01-26T03:59:39.742Z,31.50
2018-01-26T04:02:14.188Z,33.20
2018-01-26T04:04:48.681Z,30.92
2018-01-26T04:07:23.196Z,31.55
2018-01-26T04:09:57.706Z,30.08
2018-01-26T04:12:32.297Z,29.42
2018-01-26T04:15:07.500Z,29.00
2018-01-26T04:17:42.752Z,28.98
2018-01-26T04:20:17.225Z,30.00
2018-01-26T04:22:51.760Z,30.95
2018-01-26T04:25:26.117Z,29.67
2018-01-26T04:28:00.629Z,32.75
2018-01-26T04:30:35.145Z,30.50
2018-01-26T04:33:09.496Z,30.62
2018-01-26T04:35:44.020Z,31.05
2018-01-26T04:38:19.479Z,30.52
2018-01-26T04:40:53.852Z,30.10
2018-01-26T04:43:28.395Z,31.30
2018-01-26T04:46:02.894Z,29.20
2018-01-26T04:48:37.429Z,31.15
2018-01-26T04:51:11.802Z,29.52
2018-01-26T04:53:46.241Z,29.25
2018-01-26T04:56:20.886Z,31.65
2018-01-26T04:58:55.388Z,31.85
2018-01-26T05:01:29.904Z,32.42
2018-01-26T05:04:04.511Z,33.90
2018-01-26T05:06:39.156Z,31.52
2018-01-26T05:09:13.499Z,30.80
2018-01-26T05:11:48.032Z,34.78
2018-01-26T05:14:23.357Z,32.28
2018-01-26T05:16:57.859Z,32.30
2018-01-26T05:19:32.459Z,33.67
2018-01-26T05:22:06.926Z,31.08
2018-01-26T05:24:41.388Z,32.03
2018-01-26T05:27:15.772Z,30.10
2018-01-26T05:29:50.110Z,33.55
2018-01-26T05:32:24.500Z,35.72
2018-01-26T05:34:59.029Z,33.35
2018-01-26T05:37:33.582Z,31.50
2018-01-26T05:40:08.006Z,29.10
2018-01-26T05:42:42.508Z,30.23
2018-01-26T05:45:16.923Z,30.17
2018-01-26T05:47:52.376Z,32.17
2018-01-26T05:50:26.868Z,30.42
2018-01-26T05:53:01.402Z,30.52
2018-01-26T05:55:35.926Z,32.90
2018-01-26T05:58:10.435Z,31.55
2018-01-26T06:00:44.947Z,31.02
2018-01-26T06:03:19.318Z,31.58
2018-01-26T06:05:54.630Z,32.90
2018-01-26T06:08:29.878Z,32.17
2018-01-26T06:11:04.291Z,31.85
2018-01-26T06:13:38.768Z,29.10
2018-01-26T06:16:13.306Z,32.08
2018-01-26T06:18:47.680Z,30.35
2018-01-26T06:21:22.853Z,29.12
2018-01-26T06:23:57.267Z,27.92
2018-01-26T06:26:31.824Z,28.52
2018-01-26T06:29:06.440Z,30.92
2018-01-26T06:31:40.949Z,32.75
2018-01-26T06:34:16.077Z,31.30
2018-01-26T06:36:50.665Z,30.92
2018-01-26T06:39:25.256Z,27.55
2018-01-26T06:41:59.801Z,27.30
2018-01-26T06:44:34.203Z,30.52
2018-01-26T06:47:08.529Z,31.30
2018-01-26T06:49:43.019Z,31.48
2018-01-26T06:52:17.565Z,29.92
2018-01-26T06:54:52.870Z,30.60
2018-01-26T06:57:27.288Z,28.67
2018-01-26T07:00:03.102Z,31.95
2018-01-26T07:02:37.592Z,30.40
2018-01-26T07:05:12.865Z,31.52
2018-01-26T07:07:47.293Z,31.02
2018-01-26T07:10:21.850Z,30.48
2018-01-26T07:12:56.330Z,31.30
2018-01-26T07:15:31.007Z,33.45
2018-01-26T07:18:05.547Z,30.70
2018-01-26T07:20:39.929Z,30.17
2018-01-26T07:23:14.469Z,30.12
2018-01-26T07:25:49.019Z,28.95
2018-01-26T07:28:23.536Z,32.10
2018-01-26T07:30:57.910Z,31.65
2018-01-26T07:33:32.514Z,31.27
2018-01-26T07:36:07.069Z,29.77
2018-01-26T07:38:41.768Z,31.90
2018-01-26T07:41:16.308Z,30.73
2018-01-26T07:43:50.873Z,29.33
2018-01-26T07:46:25.452Z,28.70
2018-01-26T07:49:00.266Z,31.80
2018-01-26T07:51:34.719Z,31.33
2018-01-26T07:54:09.286Z,33.35
2018-01-26T07:56:43.778Z,30.12
2018-01-26T07:59:18.290Z,32.00
2018-01-26T08:01:52.760Z,31.10
2018-01-26T08:04:27.288Z,33.13
2018-01-26T08:07:01.678Z,31.27
2018-01-26T08:09:36.262Z,31.05
2018-01-26T08:12:10.592Z,34.65
2018-01-26T08:14:45.098Z,32.20
2018-01-26T08:17:19.643Z,33.33
2018-01-26T08:19:54.218Z,31.23
2018-01-26T08:22:28.713Z,34.90
2018-01-26T08:25:03.096Z,31.30
2018-01-26T08:27:37.461Z,30.77
2018-01-26T08:30:11.836Z,30.67
2018-01-26T08:32:46.334Z,31.42
2018-01-26T08:35:20.888Z,31.77
2018-01-26T08:37:55.564Z,31.12
2018-01-26T08:40:30.105Z,30.70
2018-01-26T08:43:04.671Z,29.08
2018-01-26T08:45:39.300Z,28.05
2018-01-26T08:48:13.687Z,31.00
2018-01-26T08:50:48.201Z,28.33
2018-01-26T08:53:22.674Z,28.80
2018-01-26T08:55:57.175Z,29.00
2018-01-26T08:58:31.700Z,30.92
2018-01-26T09:01:06.252Z,32.30
2018-01-26T09:03:40.614Z,32.35
2018-01-26T09:06:14.938Z,30.45
2018-01-26T09:08:49.465Z,28.65
2018-01-26T09:11:23.981Z,28.73
2018-01-26T09:13:58.392Z,30.25
2018-01-26T09:16:33.620Z,30.35
2018-01-26T09:19:08.169Z,29.85
2018-01-26T09:21:42.713Z,28.20
2018-01-26T09:24:17.349Z,27.30
2018-01-26T09:26:52.909Z,28.42
2018-01-26T09:29:27.481Z,29.50
2018-01-26T09:32:02.096Z,29.48
2018-01-26T09:34:36.633Z,30.48
2018-01-26T09:37:11.113Z,30.83
2018-01-26T09:39:47.777Z,30.45
2018-01-26T09:42:23.047Z,34.90
2018-01-26T09:44:57.555Z,34.58
2018-01-26T09:47:32.101Z,32.08
2018-01-26T09:50:06.629Z,36.30
2018-01-26T09:52:41.056Z,33.30
2018-01-26T09:55:15.574Z,36.03
2018-01-26T09:57:49.973Z,35.28
2018-01-26T10:00:24.371Z,35.85
2018-01-26T10:02:58.838Z,31.60
2018-01-26T10:05:33.326Z,30.35
2018-01-26T10:08:07.912Z,34.38
2018-01-26T10:10:42.473Z,30.92
2018-01-26T10:13:16.988Z,34.50
2018-01-26T10:15:51.553Z,34.28
2018-01-26T10:18:26.021Z,30.73
2018-01-26T10:21:00.430Z,35.40
2018-01-26T10:23:34.997Z,34.25
2018-01-26T10:26:10.313Z,34.22
2018-01-26T10:28:44.843Z,40.12
2018-01-26T10:31:19.368Z,36.30
2018-01-26T10:33:53.786Z,35.10
2018-01-26T10:36:28.310Z,34.35
2018-01-26T10:39:02.900Z,34.50
2018-01-26T10:41:37.447Z,29.70
2018-01-26T10:44:12.745Z,31.40
2018-01-26T10:46:47.230Z,29.35
2018-01-26T10:49:21.696Z,28.70
2018-01-26T10:51:56.855Z,27.58
2018-01-26T10:54:31.247Z,31.37
2018-01-26T10:57:05.841Z,27.65
2018-01-26T10:59:40.437Z,30.92
2018-01-26T11:02:15.001Z,32.55
2018-01-26T11:04:50.184Z,37.13
2018-01-26T11:07:24.747Z,33.30
2018-01-26T11:09:59.108Z,27.27
2018-01-26T11:12:33.607Z,30.05
2018-01-26T11:15:08.208Z,33.80
2018-01-26T11:17:42.719Z,35.25
2018-01-26T11:20:17.177Z,30.73
2018-01-26T11:22:51.707Z,33.75
2018-01-26T11:25:26.184Z,29.12
2018-01-26T11:28:00.723Z,27.48
2018-01-26T11:30:35.148Z,22.00
2018-01-26T11:33:09.744Z,27.20
2018-01-26T11:35:44.276Z,23.35
2018-01-26T11:38:19.594Z,25.55
2018-01-26T11:40:54.104Z,24.80
2018-01-26T11:43:28.688Z,23.85
2018-01-26T11:46:03.156Z,23.70
2018-01-26T11:48:37.557Z,21.00
2018-01-26T11:51:12.034Z,23.40
2018-01-26T11:53:46.609Z,23.15
2018-01-26T11:56:20.940Z,22.58
2018-01-26T11:58:55.483Z,25.45
2018-01-26T12:01:30.113Z,22.73
2018-01-26T12:04:04.805Z,23.20
2018-01-26T12:06:39.339Z,22.02
2018-01-26T12:09:13.874Z,21.52
2018-01-26T12:11:48.381Z,21.87
2018-01-26T12:14:23.005Z,20.73
2018-01-26T12:16:57.321Z,19.73
2018-01-26T12:19:32.598Z,20.10
2018-01-26T12:22:07.067Z,18.98
2018-01-26T12:24:41.544Z,20.65
2018-01-26T12:27:15.887Z,21.10
2018-01-26T12:29:51.172Z,19.75
2018-01-26T12:32:26.337Z,18.58
2018-01-26T12:35:00.813Z,19.48
2018-01-26T12:37:35.328Z,19.50
2018-01-26T12:40:10.577Z,19.08
2018-01-26T12:42:45.104Z,16.42
2018-01-26T12:45:19.608Z,20.12
2018-01-26T12:47:54.149Z,22.33
2018-01-26T12:50:28.547Z,19.37
2018-01-26T12:53:03.009Z,21.10
2018-01-26T12:55:38.199Z,20.02
2018-01-26T12:58:12.722Z,19.40
2018-01-26T13:00:47.226Z,21.30
2018-01-26T13:03:21.773Z,21.77
2018-01-26T13:05:56.300Z,17.83
2018-01-26T13:08:30.803Z,18.52
2018-01-26T13:11:05.987Z,20.52
2018-01-26T13:13:40.478Z,21.35
2018-01-26T13:16:14.978Z,21.55
2018-01-26T13:18:49.491Z,18.60
2018-01-26T13:21:23.818Z,23.55
2018-01-26T13:23:58.276Z,21.30
2018-01-26T13:26:32.811Z,20.70
2018-01-26T13:29:07.368Z,21.75
2018-01-26T13:31:41.873Z,18.92
2018-01-26T13:34:16.240Z,19.92
2018-01-26T13:36:50.561Z,19.25
2018-01-26T13:39:25.092Z,21.00
2018-01-26T13:41:59.741Z,18.65
2018-01-26T13:44:34.297Z,18.52
2018-01-26T13:47:08.796Z,18.92
2018-01-26T13:49:43.135Z,21.05
2018-01-26T13:52:17.644Z,18.42
2018-01-26T13:54:52.181Z,18.65
2018-01-26T13:57:26.769Z,19.02
2018-01-26T14:00:01.163Z,19.75
2018-01-26T14:02:35.808Z,19.62
2018-01-26T14:05:11.117Z,21.58
2018-01-26T14:07:46.350Z,21.02
2018-01-26T14:10:21.608Z,19.80
2018-01-26T14:12:55.993Z,22.50
2018-01-26T14:15:30.557Z,18.52
2018-01-26T14:18:05.061Z,23.05
2018-01-26T14:20:39.689Z,20.85
2018-01-26T14:23:14.228Z,17.10
2018-01-26T14:25:48.606Z,17.73
2018-01-26T14:28:23.060Z,22.08
2018-01-26T14:30:57.594Z,19.42
2018-01-26T14:33:32.089Z,20.05
2018-01-26T14:36:06.497Z,21.30
2018-01-26T14:38:40.838Z,21.85
2018-01-26T14:41:15.308Z,20.42
2018-01-26T14:43:49.784Z,21.92
2018-01-26T14:46:25.004Z,19.10
2018-01-26T14:48:59.528Z,19.45
2018-01-26T14:51:34.707Z,20.98
2018-01-26T14:54:09.166Z,23.40
2018-01-26T14:56:44.449Z,21.23
2018-01-26T14:59:18.954Z,22.37
2018-01-26T15:01:54.268Z,22.52
2018-01-26T15:04:28.744Z,21.90
2018-01-26T15:07:03.232Z,24.12
2018-01-26T15:09:37.802Z,24.60
2018-01-26T15:12:12.313Z,23.25
2018-01-26T15:14:46.700Z,21.87
2018-01-26T15:17:21.372Z,23.00
2018-01-26T15:19:55.932Z,23.40
2018-01-26T15:22:30.448Z,27.27
2018-01-26T15:25:04.955Z,20.95
2018-01-26T15:27:39.393Z,23.73
2018-01-26T15:30:14.010Z,21.00
2018-01-26T15:32:48.507Z,22.25
2018-01-26T15:35:23.100Z,21.23
2018-01-26T15:37:57.665Z,13.85
2018-01-26T15:40:32.266Z,22.25
2018-01-26T15:43:06.682Z,24.42
2018-01-26T15:45:41.188Z,28.38
2018-01-26T15:48:16.390Z,27.73
2018-01-26T15:50:50.961Z,25.80
2018-01-26T15:53:25.365Z,26.48
2018-01-26T15:55:59.988Z,26.60
2018-01-26T15:58:34.526Z,25.35
2018-01-26T16:01:09.065Z,26.48
2018-01-26T16:03:43.667Z,26.73
2018-01-26T16:06:18.051Z,27.48
2018-01-26T16:08:52.537Z,30.27
2018-01-26T16:11:27.696Z,29.60
2018-01-26T16:14:02.273Z,26.20
2018-01-26T16:16:36.809Z,25.92
2018-01-26T16:19:12.255Z,23.12
2018-01-26T16:21:46.737Z,25.17
2018-01-26T16:24:21.153Z,19.70
2018-01-26T16:26:55.569Z,23.10
2018-01-26T16:29:30.112Z,24.98
2018-01-26T16:32:05.463Z,23.38
2018-01-26T16:34:39.848Z,21.92
2018-01-26T16:37:14.422Z,23.87
2018-01-26T16:39:49.574Z,23.98
2018-01-26T16:42:24.033Z,24.80
2018-01-26T16:44:58.567Z,22.55
2018-01-26T16:47:33.064Z,22.75
2018-01-26T16:50:07.718Z,24.02
2018-01-26T16:52:42.077Z,25.65
2018-01-26T16:55:16.736Z,25.55
2018-01-26T16:57:51.100Z,24.12
2018-01-26T17:00:25.656Z,17.23
2018-01-26T17:03:00.092Z,23.62
2018-01-26T17:05:34.549Z,22.83
2018-01-26T17:08:09.991Z,27.00
2018-01-26T17:10:44.380Z,26.12
2018-01-26T17:13:18.861Z,20.42
2018-01-26T17:15:53.405Z,24.23
2018-01-26T17:18:28.633Z,25.17
2018-01-26T17:21:03.134Z,25.15
2018-01-26T17:23:37.733Z,24.67
2018-01-26T17:26:12.369Z,26.17
2018-01-26T17:28:46.967Z,27.17
2018-01-26T17:31:21.350Z,26.55
2018-01-26T17:33:55.929Z,28.30
2018-01-26T17:36:30.438Z,28.90
2018-01-26T17:39:04.920Z,28.15
2018-01-26T17:41:39.442Z,27.17
2018-01-26T17:44:14.043Z,30.60
2018-01-26T17:46:48.624Z,27.13
2018-01-26T17:49:23.283Z,31.27
2018-01-26T17:51:57.782Z,27.00
2018-01-26T17:54:32.377Z,21.30
2018-01-26T17:57:06.826Z,32.38
2018-01-26T17:59:41.341Z,23.60
2018-01-26T18:02:15.816Z,22.50
2018-01-26T18:04:50.246Z,23.70
2018-01-26T18:07:25.494Z,26.77
2018-01-26T18:09:59.925Z,16.85
2018-01-26T18:12:34.359Z,15.45
2018-01-26T18:15:09.669Z,26.42
2018-01-26T18:17:45.032Z,19.15
2018-01-26T18:20:20.451Z,18.60
2018-01-26T18:22:55.199Z,13.60
2018-01-26T18:25:30.261Z,17.30
2018-01-26T18:28:04.860Z,16.45
2018-01-26T18:30:39.635Z,18.15
2018-01-26T18:33:13.968Z,14.98
2018-01-26T18:35:48.456Z,17.23
2018-01-26T18:38:23.745Z,17.98
2018-01-26T18:40:59.026Z,15.77
2018-01-26T18:43:34.659Z,17.20
2018-01-26T18:46:09.135Z,17.42
2018-01-26T18:48:43.684Z,19.60
2018-01-26T18:51:18.165Z,20.50
2018-01-26T18:53:53.364Z,18.77
2018-01-26T18:56:27.986Z,21.67
2018-01-26T18:59:02.481Z,20.25
2018-01-26T19:01:37.647Z,24.70
2018-01-26T19:04:12.098Z,24.50
2018-01-26T19:06:46.648Z,26.08
2018-01-26T19:09:21.113Z,18.80
2018-01-26T19:11:55.561Z,22.23
2018-01-26T19:14:30.046Z,14.52
2018-01-26T19:17:05.353Z,22.60
2018-01-26T19:19:39.739Z,18.12
2018-01-26T19:22:14.118Z,22.15
2018-01-26T19:24:48.494Z,24.17
2018-01-26T19:27:23.790Z,20.90
2018-01-26T19:29:58.255Z,23.58
2018-01-26T19:32:33.658Z,20.65
2018-01-26T19:35:08.170Z,21.00
2018-01-26T19:37:42.682Z,23.23
2018-01-26T19:40:17.168Z,20.95
2018-01-26T19:42:51.701Z,19.00
2018-01-26T19:45:26.216Z,19.70
2018-01-26T19:48:01.450Z,18.10
2018-01-26T19:50:35.912Z,16.70
2018-01-26T19:53:10.434Z,18.60
2018-01-26T19:55:44.925Z,18.20
2018-01-26T19:58:19.556Z,17.70
2018-01-26T20:00:54.785Z,19.42
2018-01-26T20:03:32.102Z,18.42
2018-01-26T20:06:23.998Z,17.60
2018-01-26T20:09:06.137Z,18.73
2018-01-26T20:11:40.814Z,20.42
2018-01-26T20:14:20.922Z,15.05
2018-01-26T20:16:55.482Z,16.87
2018-01-26T20:19:30.106Z,12.60
2018-01-26T20:22:04.687Z,16.05
2018-01-26T20:24:39.065Z,14.32
2018-01-26T20:27:13.563Z,17.52
2018-01-26T20:29:48.036Z,17.00
2018-01-26T20:32:22.451Z,15.63
2018-01-26T20:34:56.994Z,14.73
2018-01-26T20:37:31.437Z,15.57
2018-01-26T20:40:05.824Z,16.48
2018-01-26T20:42:40.332Z,16.30
2018-01-26T20:45:14.685Z,18.00
2018-01-26T20:47:49.012Z,17.77
2018-01-26T20:50:23.553Z,18.65
2018-01-26T20:52:58.013Z,14.95
2018-01-26T20:55:32.640Z,16.30
2018-01-26T20:58:07.130Z,19.02
2018-01-26T21:00:41.682Z,14.90
2018-01-26T21:03:16.153Z,16.23
2018-01-26T21:05:50.669Z,14.40
2018-01-26T21:08:25.244Z,18.62
2018-01-26T21:10:59.711Z,17.90
2018-01-26T21:13:34.309Z,17.33
2018-01-26T21:16:08.808Z,16.87
2018-01-26T21:18:43.209Z,18.65
2018-01-26T21:21:17.700Z,17.30
2018-01-26T21:23:52.983Z,11.25
2018-01-26T21:26:27.391Z,18.23
2018-01-26T21:29:02.044Z,18.62
2018-01-26T21:31:36.396Z,15.27
2018-01-26T21:34:10.909Z,19.62
2018-01-26T21:36:45.349Z,14.93
2018-01-26T21:39:19.889Z,16.73
2018-01-26T21:41:54.401Z,15.93
2018-01-26T21:44:28.719Z,16.50
2018-01-26T21:47:04.016Z,14.95
2018-01-26T21:49:38.504Z,12.02
2018-01-26T21:52:13.015Z,15.40
2018-01-26T21:54:47.432Z,14.93
2018-01-26T21:57:21.897Z,18.85
2018-01-26T21:59:56.346Z,20.77
2018-01-26T22:02:30.737Z,15.57
2018-01-26T22:05:10.941Z,14.40
2018-01-26T22:07:45.499Z,15.65
2018-01-26T22:10:20.032Z,18.20
2018-01-26T22:12:54.591Z,16.58
2018-01-26T22:15:29.375Z,15.57
2018-01-26T22:18:03.964Z,16.50
2018-01-26T22:20:38.476Z,22.35
2018-01-26T22:23:12.935Z,17.05
2018-01-26T22:25:47.425Z,13.20
2018-01-26T22:28:22.664Z,16.37
2018-01-26T22:30:57.318Z,13.25
2018-01-26T22:33:32.633Z,19.67
2018-01-26T22:36:07.803Z,17.62
2018-01-26T22:38:43.094Z,16.58
2018-01-26T22:41:17.588Z,9.80
2018-01-26T22:43:52.137Z,12.48
2018-01-26T22:46:26.712Z,15.50
2018-01-26T22:49:01.075Z,11.35
2018-01-26T22:51:35.625Z,11.57
2018-01-26T22:54:10.081Z,15.43
2018-01-26T22:56:44.477Z,18.73
2018-01-26T22:59:19.153Z,15.80
2018-01-26T23:01:53.524Z,15.48
2018-01-26T23:04:28.061Z,11.85
2018-01-26T23:07:02.567Z,20.88
2018-01-26T23:09:37.030Z,19.40
2018-01-26T23:12:11.425Z,18.48
2018-01-26T23:14:45.776Z,19.87
2018-01-26T23:17:20.311Z,15.43
2018-01-26T23:19:54.895Z,18.10
2018-01-26T23:22:30.080Z,17.35
2018-01-26T23:25:04.494Z,19.42
2018-01-26T23:27:39.026Z,19.20
2018-01-26T23:30:13.560Z,15.35
2018-01-26T23:32:48.044Z,17.48
2018-01-26T23:35:22.556Z,19.87
2018-01-26T23:37:57.110Z,21.37
2018-01-26T23:40:31.620Z,17.90
2018-01-26T23:43:06.133Z,20.62
2018-01-26T23:45:40.800Z,18.27
2018-01-26T23:48:15.328Z,13.57
2018-01-26T23:50:49.825Z,18.98
2018-01-26T23:53:24.317Z,14.07
2018-01-26T23:55:58.694Z,16.40
2018-01-26T23:58:33.260Z,16.15
